Hovedside
METAR-TAF:

METAR-TAF

Lufthavner :

New Delhi, India

Indira Gandhi internasjonale lufthavn

breddegrad: 28-34N, lengdegrad: 077-07E, høyde over havet: 220 m

Gjeldene værobservasjon

Denne rapporten ble laget for 32 minutter siden, klokken 18:00 UTC
Flau vind
Temperatur 29°C
Luftfuktighet 27%
Trykk 1007 hPa
Sikt: 3200 m
dis

METAR: VIDP 241800Z 00000KT 3200 HZ NSC 29/08 Q1007 NOSIG

Tid: 00:02 (18:32 UTC)

Varsel

Denne rapporten ble laget for 1 time og 32 minutter siden, klokken 17:00 UTC
Varsel gyldig fra 24. klokken 18 UTC til 25. klokken 24 UTC
Vind 5 kt fra Nordvest
Sikt: 3500 m
dis
Blir
fra 25. klokken 00 UTC til 25. klokken 02 UTC
Vind 2 kt fra skiftende retning
Sikt: 2500 m
dis
Blir
fra 25. klokken 05 UTC til 25. klokken 07 UTC
Vind 8 kt fra Vest med vindkast opp mot 18 kt
Sikt: 3500 m
dis, mye støv

TAF: VIDP 241700Z 2418/2524 32005KT 3500 HZ NSC BECMG 2500/2502 VRB02KT 2500 HZ BECMG 2505/2507 27008G18KT 3500 HZ DU

Værobservasjoner og værvarsel for over 4000 flyplasser (METAR- og TAF-rapporter).

Tilgjengelige stasjoner er representert av de røde og gule prikkene på kartet.

Hold musepekeren over prikken for å se navnet på stasjonen.

Klikk så for å se værobservasjoner og -varsler.

For å forandre kartet kan du klikke på den grønne knappen med svart kryss for å zoome inn, på den grønne knappen med strek for å zoome ut, eller på de grønne pilene for å se tilstøtende kart.


METAR-TAF: